createdAt,value
2019-06-08T00:01:55.688Z,101000.95
2019-06-08T00:04:28.774Z,101001.02
2019-06-08T00:07:01.773Z,101010.62
2019-06-08T00:09:34.746Z,101014.36
2019-06-08T00:12:07.948Z,101007.13
2019-06-08T00:14:40.962Z,101002.76
2019-06-08T00:17:30.739Z,101006.34
2019-06-08T00:19:48.748Z,101007.94
2019-06-08T00:22:22.041Z,101006.19
2019-06-08T00:24:55.336Z,101008.77
2019-06-08T00:27:28.626Z,101007.56
2019-06-08T00:30:02.226Z,101002.97
2019-06-08T00:32:35.526Z,100995.20
2019-06-08T00:35:09.344Z,100999.17
2019-06-08T00:37:42.626Z,100995.36
2019-06-08T00:40:16.849Z,100998.33
2019-06-08T00:42:49.828Z,101006.62
2019-06-08T00:45:23.613Z,101003.19
2019-06-08T00:47:56.703Z,101004.81
2019-06-08T00:50:29.633Z,101002.65
2019-06-08T00:53:02.612Z,100999.21
2019-06-08T00:55:36.011Z,100999.95
2019-06-08T00:58:09.313Z,101001.16
2019-06-08T01:00:42.604Z,101000.85
2019-06-08T01:03:17.601Z,101005.81
2019-06-08T01:05:51.041Z,101018.53
2019-06-08T01:08:25.450Z,101022.11
2019-06-08T01:10:58.551Z,101015.19
2019-06-08T01:13:31.639Z,101028.21
2019-06-08T01:16:04.734Z,101026.42
2019-06-08T01:18:37.621Z,101032.59
2019-06-08T01:21:10.742Z,101024.55
2019-06-08T01:23:44.213Z,101030.66
2019-06-08T01:26:17.901Z,101025.67
2019-06-08T01:28:50.685Z,101024.29
2019-06-08T01:31:24.423Z,101028.25
2019-06-08T01:33:57.585Z,101029.70
2019-06-08T01:36:31.316Z,101028.73
2019-06-08T01:39:06.021Z,101022.31
2019-06-08T01:41:39.214Z,101033.28
2019-06-08T01:44:12.311Z,101031.02
2019-06-08T01:46:45.720Z,101026.48
2019-06-08T01:49:19.015Z,101028.97
2019-06-08T01:51:52.634Z,101026.55
2019-06-08T01:54:26.923Z,101028.75
2019-06-08T01:57:00.321Z,101031.72
2019-06-08T01:59:34.752Z,101027.07
2019-06-08T02:02:07.836Z,101023.58
2019-06-08T02:04:40.917Z,101020.69
2019-06-08T02:07:14.341Z,101016.80
2019-06-08T02:09:47.516Z,101019.78
2019-06-08T02:12:20.698Z,101018.53
2019-06-08T02:14:53.791Z,101008.23
2019-06-08T02:17:27.345Z,101009.92
2019-06-08T02:20:00.279Z,101007.49
2019-06-08T02:22:33.580Z,101021.73
2019-06-08T02:25:07.888Z,101023.20
2019-06-08T02:27:41.029Z,101023.95
2019-06-08T02:30:17.352Z,101026.06
2019-06-08T02:32:50.550Z,101035.73
2019-06-08T02:35:23.937Z,101036.38
2019-06-08T02:37:57.433Z,101043.00
2019-06-08T02:40:32.473Z,101050.87
2019-06-08T02:43:05.011Z,101047.92
2019-06-08T02:45:40.211Z,101044.34
2019-06-08T02:48:13.278Z,101047.19
2019-06-08T02:50:55.487Z,101043.98
2019-06-08T02:53:29.423Z,101044.40
2019-06-08T02:56:03.514Z,101044.58
2019-06-08T02:58:39.043Z,101043.81
2019-06-08T03:01:11.707Z,101039.63
2019-06-08T03:03:44.815Z,101050.56
2019-06-08T03:06:17.806Z,101049.16
2019-06-08T03:08:51.348Z,101048.09
2019-06-08T03:11:24.311Z,101048.13
2019-06-08T03:13:59.138Z,101044.70
2019-06-08T03:16:33.329Z,101048.00
2019-06-08T03:19:20.719Z,101039.03
2019-06-08T03:21:42.445Z,101046.08
2019-06-08T03:24:18.260Z,101045.08
2019-06-08T03:26:51.546Z,101036.53
2019-06-08T03:29:24.642Z,101045.08
2019-06-08T03:31:58.769Z,101046.30
2019-06-08T03:34:34.714Z,101044.94
2019-06-08T03:37:06.671Z,101041.48
2019-06-08T03:39:41.384Z,101042.86
2019-06-08T03:42:15.005Z,101048.50
2019-06-08T03:44:48.400Z,101048.70
2019-06-08T03:47:21.691Z,101053.61
2019-06-08T03:49:57.519Z,101049.49
2019-06-08T03:52:30.019Z,101053.23
2019-06-08T03:55:03.489Z,101055.14
2019-06-08T03:57:38.044Z,101051.86
2019-06-08T04:00:13.329Z,101055.27
2019-06-08T04:02:46.743Z,101048.44
2019-06-08T04:05:19.934Z,101051.45
2019-06-08T04:07:53.162Z,101052.16
2019-06-08T04:10:26.560Z,101057.31
2019-06-08T04:12:59.443Z,101068.54
2019-06-08T04:15:32.543Z,101069.78
2019-06-08T04:18:05.741Z,101057.09
2019-06-08T04:20:40.259Z,101062.74
2019-06-08T04:23:13.750Z,101061.30
2019-06-08T04:25:47.781Z,101060.98
2019-06-08T04:28:20.746Z,101068.94
2019-06-08T04:30:54.048Z,101070.33
2019-06-08T04:33:27.133Z,101067.56
2019-06-08T04:36:00.324Z,101071.44
2019-06-08T04:38:33.719Z,101069.99
2019-06-08T04:41:06.913Z,101074.04
2019-06-08T04:43:42.624Z,101075.28
2019-06-08T04:46:16.779Z,101077.02
2019-06-08T04:48:50.314Z,101078.62
2019-06-08T04:51:23.486Z,101074.47
2019-06-08T04:53:56.760Z,101076.31
2019-06-08T04:56:29.965Z,101082.66
2019-06-08T04:59:02.934Z,101087.63
2019-06-08T05:01:36.250Z,101087.35
2019-06-08T05:04:09.447Z,101090.02
2019-06-08T05:06:42.973Z,101084.17
2019-06-08T05:09:16.341Z,101087.75
2019-06-08T05:11:49.894Z,101082.39
2019-06-08T05:14:23.157Z,101084.63
2019-06-08T05:16:56.228Z,101084.11
2019-06-08T05:19:29.469Z,101076.00
2019-06-08T05:22:02.418Z,101089.67
2019-06-08T05:24:35.221Z,101085.70
2019-06-08T05:27:08.515Z,101089.03
2019-06-08T05:29:41.715Z,101090.56
2019-06-08T05:32:15.218Z,101094.95
2019-06-08T05:34:49.716Z,101095.73
2019-06-08T05:37:22.757Z,101100.48
2019-06-08T05:39:56.099Z,101097.83
2019-06-08T05:42:29.105Z,101098.16
2019-06-08T05:45:02.422Z,101088.89
2019-06-08T05:47:35.600Z,101098.89
2019-06-08T05:50:11.450Z,101097.61
2019-06-08T05:52:45.811Z,101104.80
2019-06-08T05:55:18.749Z,101111.52
2019-06-08T05:57:52.168Z,101103.12
2019-06-08T06:00:25.053Z,101104.40
2019-06-08T06:02:58.157Z,101105.68
2019-06-08T06:05:31.133Z,101102.98
2019-06-08T06:08:16.137Z,101104.87
2019-06-08T06:10:38.859Z,101099.42
2019-06-08T06:13:12.167Z,101102.84
2019-06-08T06:15:47.215Z,101101.95
2019-06-08T06:18:20.147Z,101107.16
2019-06-08T06:21:07.414Z,101107.61
2019-06-08T06:23:28.303Z,101115.05
2019-06-08T06:26:01.098Z,101107.53
2019-06-08T06:28:34.588Z,101102.17
2019-06-08T06:31:07.888Z,101102.77
2019-06-08T06:33:41.987Z,101103.98
2019-06-08T06:36:15.288Z,101100.05
2019-06-08T06:38:50.101Z,101098.46
2019-06-08T06:41:23.208Z,101093.41
2019-06-08T06:43:56.193Z,101091.31
2019-06-08T06:46:29.143Z,101091.85
2019-06-08T06:49:02.630Z,101092.32
2019-06-08T06:51:35.833Z,101100.75
2019-06-08T06:54:09.531Z,101089.72
2019-06-08T06:56:43.101Z,101098.73
2019-06-08T06:59:16.257Z,101091.74
2019-06-08T07:01:54.109Z,101086.91
2019-06-08T07:04:24.254Z,101091.36
2019-06-08T07:06:58.764Z,101092.00
2019-06-08T07:09:32.102Z,101092.66
2019-06-08T07:12:05.504Z,101095.97
2019-06-08T07:14:38.532Z,101088.63
2019-06-08T07:17:11.568Z,101088.14
2019-06-08T07:19:44.458Z,101082.21
2019-06-08T07:22:17.394Z,101082.92
2019-06-08T07:24:50.807Z,101070.91
2019-06-08T07:27:24.092Z,101075.48
2019-06-08T07:29:57.489Z,101079.73
2019-06-08T07:32:30.579Z,101073.91
2019-06-08T07:35:04.618Z,101070.25
2019-06-08T07:37:37.593Z,101073.22
2019-06-08T07:40:10.887Z,101075.41
2019-06-08T07:42:43.987Z,101076.38
2019-06-08T07:45:17.067Z,101075.16
2019-06-08T07:47:50.164Z,101073.27
2019-06-08T07:50:23.495Z,101066.86
2019-06-08T07:52:56.848Z,101071.94
2019-06-08T07:55:30.142Z,101064.91
2019-06-08T07:58:03.636Z,101068.97
2019-06-08T08:00:36.936Z,101064.62
2019-06-08T08:03:09.820Z,101061.59
2019-06-08T08:05:43.440Z,101068.51
2019-06-08T08:08:16.529Z,101067.58
2019-06-08T08:10:50.365Z,101071.10
2019-06-08T08:13:24.462Z,101069.12
2019-06-08T08:15:59.374Z,101066.00
2019-06-08T08:18:33.905Z,101070.02
2019-06-08T08:21:18.818Z,101059.66
2019-06-08T08:23:41.625Z,101064.56
2019-06-08T08:26:14.820Z,101050.53
2019-06-08T08:28:49.994Z,101053.59
2019-06-08T08:31:23.971Z,101056.03
2019-06-08T08:34:03.059Z,101043.91
2019-06-08T08:36:33.343Z,101047.03
2019-06-08T08:39:08.791Z,101044.77
2019-06-08T08:41:42.056Z,101041.09
2019-06-08T08:44:17.434Z,101045.06
2019-06-08T08:46:51.402Z,101040.94
2019-06-08T08:49:27.969Z,101044.32
2019-06-08T08:52:01.856Z,101041.84
2019-06-08T08:54:34.892Z,101042.42
2019-06-08T08:57:08.456Z,101041.87
2019-06-08T08:59:41.705Z,101046.41
2019-06-08T09:02:14.734Z,101035.61
2019-06-08T09:04:48.216Z,101040.91
2019-06-08T09:07:21.303Z,101041.48
2019-06-08T09:09:56.153Z,101039.55
2019-06-08T09:12:29.324Z,101034.84
2019-06-08T09:15:04.018Z,101030.98
2019-06-08T09:17:38.769Z,101020.19
2019-06-08T09:20:15.420Z,101022.15
2019-06-08T09:22:53.710Z,101014.14
2019-06-08T09:25:21.635Z,101012.23
2019-06-08T09:27:56.389Z,101013.87
2019-06-08T09:30:29.480Z,101008.59
2019-06-08T09:33:04.195Z,100997.52
2019-06-08T09:35:38.319Z,100998.42
2019-06-08T09:38:11.835Z,100997.53
2019-06-08T09:40:45.019Z,101003.61
2019-06-08T09:43:19.029Z,100993.60
2019-06-08T09:45:53.686Z,100990.80
2019-06-08T09:48:28.870Z,100994.45
2019-06-08T09:51:03.927Z,100990.57
2019-06-08T09:53:40.468Z,100979.75
2019-06-08T09:56:11.027Z,100981.14
2019-06-08T09:58:44.026Z,100973.73
2019-06-08T10:01:18.444Z,100977.34
2019-06-08T10:03:51.650Z,100980.98
2019-06-08T10:06:24.749Z,100979.61
2019-06-08T10:08:58.546Z,100978.22
2019-06-08T10:11:31.858Z,100981.56
2019-06-08T10:14:09.236Z,100980.72
2019-06-08T10:16:39.905Z,100977.94
2019-06-08T10:19:13.375Z,100983.77
2019-06-08T10:21:48.174Z,100986.01
2019-06-08T10:24:21.298Z,100982.11
2019-06-08T10:26:55.179Z,100987.38
2019-06-08T10:29:28.529Z,100981.56
2019-06-08T10:32:01.933Z,100976.58
2019-06-08T10:34:34.987Z,100979.63
2019-06-08T10:37:12.852Z,100984.94
2019-06-08T10:39:42.817Z,100985.77
2019-06-08T10:42:18.326Z,100993.53
2019-06-08T10:44:51.523Z,100995.76
2019-06-08T10:47:29.544Z,101000.76
2019-06-08T10:50:06.382Z,101007.42
2019-06-08T10:52:34.582Z,101002.70
2019-06-08T10:55:11.599Z,101008.52
2019-06-08T10:57:43.443Z,101014.09
2019-06-08T11:00:24.558Z,101003.52
2019-06-08T11:03:01.590Z,101005.19
2019-06-08T11:05:33.379Z,101019.35
2019-06-08T11:08:13.504Z,101011.59
2019-06-08T11:10:41.484Z,101011.56
2019-06-08T11:13:15.316Z,101011.03
2019-06-08T11:15:49.200Z,101001.28
2019-06-08T11:18:22.183Z,101006.81
2019-06-08T11:20:57.970Z,101001.27
2019-06-08T11:23:29.906Z,100991.31
2019-06-08T11:26:05.410Z,100987.39
2019-06-08T11:28:38.342Z,100979.06
2019-06-08T11:31:15.779Z,100980.13
2019-06-08T11:33:48.825Z,100973.47
2019-06-08T11:36:21.013Z,100970.05
2019-06-08T11:38:54.191Z,100969.55
2019-06-08T11:41:27.906Z,100977.05
2019-06-08T11:44:01.990Z,100980.36
2019-06-08T11:46:38.111Z,100972.58
2019-06-08T11:49:13.471Z,100971.53
2019-06-08T11:51:47.703Z,100963.25
2019-06-08T11:54:33.158Z,100967.41
2019-06-08T11:56:57.412Z,100962.95
2019-06-08T11:59:30.041Z,100959.86
2019-06-08T12:02:03.552Z,100954.58
2019-06-08T12:04:38.418Z,100950.41
2019-06-08T12:07:13.929Z,100945.41
2019-06-08T12:09:49.930Z,100941.78
2019-06-08T12:12:21.805Z,100946.22
2019-06-08T12:14:55.122Z,100944.80
2019-06-08T12:17:28.410Z,100943.91
2019-06-08T12:20:03.365Z,100935.25
2019-06-08T12:22:37.680Z,100932.22
2019-06-08T12:25:12.230Z,100933.13
2019-06-08T12:27:45.295Z,100929.77
2019-06-08T12:30:25.594Z,100928.66
2019-06-08T12:32:52.808Z,100930.09
2019-06-08T12:35:28.253Z,100920.91
2019-06-08T12:38:01.157Z,100917.58
2019-06-08T12:40:34.349Z,100909.77
2019-06-08T12:43:09.972Z,100897.54
2019-06-08T12:45:42.288Z,100904.48
2019-06-08T12:48:18.407Z,100897.81
2019-06-08T12:50:50.203Z,100893.06
2019-06-08T12:53:23.397Z,100878.55
2019-06-08T12:55:57.894Z,100878.17
2019-06-08T12:58:31.116Z,100871.66
2019-06-08T13:01:04.308Z,100874.88
2019-06-08T13:03:37.843Z,100868.77
2019-06-08T13:06:12.496Z,100866.66
2019-06-08T13:08:47.763Z,100867.36
2019-06-08T13:11:21.561Z,100861.06
2019-06-08T13:13:54.922Z,100859.48
2019-06-08T13:16:28.471Z,100866.23
2019-06-08T13:19:01.520Z,100860.39
2019-06-08T13:21:35.747Z,100856.48
2019-06-08T13:24:10.189Z,100856.42
2019-06-08T13:26:43.815Z,100856.45
2019-06-08T13:29:19.803Z,100858.70
2019-06-08T13:31:51.358Z,100859.81
2019-06-08T13:34:24.769Z,100852.03
2019-06-08T13:36:57.763Z,100854.28
2019-06-08T13:39:31.231Z,100843.16
2019-06-08T13:42:04.316Z,100845.41
2019-06-08T13:44:37.829Z,100844.88
2019-06-08T13:47:12.567Z,100842.09
2019-06-08T13:49:47.985Z,100846.23
2019-06-08T13:52:23.603Z,100842.30
2019-06-08T13:54:58.203Z,100842.00
2019-06-08T13:57:30.656Z,100843.64
2019-06-08T14:00:08.021Z,100845.87
2019-06-08T14:02:41.342Z,100846.72
2019-06-08T14:05:25.705Z,100846.47
2019-06-08T14:07:54.718Z,100849.50
2019-06-08T14:10:38.564Z,100853.14
2019-06-08T14:13:11.944Z,100857.62
2019-06-08T14:15:45.554Z,100859.02
2019-06-08T14:18:23.350Z,100859.31
2019-06-08T14:20:54.612Z,100864.08
2019-06-08T14:23:27.796Z,100863.50
2019-06-08T14:26:01.066Z,100867.39
2019-06-08T14:28:34.376Z,100859.89
2019-06-08T14:31:10.934Z,100859.61
2019-06-08T14:33:43.261Z,100866.27
2019-06-08T14:36:19.724Z,100862.95
2019-06-08T14:38:51.168Z,100865.15
2019-06-08T14:41:24.624Z,100859.88
2019-06-08T14:43:58.570Z,100861.52
2019-06-08T14:46:31.501Z,100862.05
2019-06-08T14:49:04.989Z,100861.50
2019-06-08T14:51:50.778Z,100857.89
2019-06-08T14:54:27.217Z,100854.84
2019-06-08T14:56:58.610Z,100851.78
2019-06-08T14:59:31.869Z,100858.73
2019-06-08T15:02:07.468Z,100864.00
2019-06-08T15:04:40.125Z,100871.23
2019-06-08T15:07:13.207Z,100872.89
2019-06-08T15:09:47.994Z,100882.05
2019-06-08T15:12:21.461Z,100878.77
2019-06-08T15:14:58.043Z,100883.48
2019-06-08T15:17:32.172Z,100886.59
2019-06-08T15:20:08.855Z,100888.00
2019-06-08T15:22:42.963Z,100893.00
2019-06-08T15:25:18.386Z,100893.03
2019-06-08T15:27:50.760Z,100893.56
2019-06-08T15:30:25.118Z,100891.64
2019-06-08T15:33:00.728Z,100895.77
2019-06-08T15:35:33.921Z,100908.83
2019-06-08T15:38:08.456Z,100917.73
2019-06-08T15:40:41.543Z,100916.34
2019-06-08T15:43:14.830Z,100916.30
2019-06-08T15:45:51.204Z,100908.26
2019-06-08T15:48:22.764Z,100904.38
2019-06-08T15:50:58.459Z,100903.52
2019-06-08T15:53:32.385Z,100901.30
2019-06-08T15:56:05.226Z,100905.42
2019-06-08T15:58:40.503Z,100900.39
2019-06-08T16:01:14.798Z,100898.74
2019-06-08T16:03:47.946Z,100898.45
2019-06-08T16:06:21.143Z,100898.98
2019-06-08T16:08:54.432Z,100906.20
2019-06-08T16:11:28.201Z,100908.67
2019-06-08T16:14:01.122Z,100904.23
2019-06-08T16:16:35.225Z,100903.12
2019-06-08T16:19:08.359Z,100908.95
2019-06-08T16:21:43.194Z,100918.37
2019-06-08T16:24:16.589Z,100916.13
2019-06-08T16:26:53.500Z,100921.95
2019-06-08T16:29:25.204Z,100918.84
2019-06-08T16:31:58.467Z,100920.49
2019-06-08T16:34:31.765Z,100917.70
2019-06-08T16:37:05.269Z,100918.80
2019-06-08T16:39:39.885Z,100920.45
2019-06-08T16:42:12.978Z,100924.60
2019-06-08T16:44:46.073Z,100918.20
2019-06-08T16:47:19.384Z,100916.55
2019-06-08T16:49:52.265Z,100914.88
2019-06-08T16:52:25.152Z,100921.50
2019-06-08T16:54:58.419Z,100919.23
2019-06-08T16:57:36.051Z,100919.17
2019-06-08T17:02:42.848Z,100923.56
2019-06-08T17:05:16.051Z,100926.48
2019-06-08T17:07:49.137Z,100919.50
2019-06-08T17:10:22.367Z,100919.98
2019-06-08T17:12:55.909Z,100916.05
2019-06-08T17:15:30.172Z,100918.48
2019-06-08T17:18:03.245Z,100915.16
2019-06-08T17:20:36.402Z,100909.59
2019-06-08T17:23:09.793Z,100915.41
2019-06-08T17:25:42.804Z,100915.42
2019-06-08T17:28:15.994Z,100907.12
2019-06-08T17:30:49.192Z,100905.69
2019-06-08T17:33:22.494Z,100916.47
2019-06-08T17:35:55.456Z,100914.46
2019-06-08T17:38:28.894Z,100907.72
2019-06-08T17:41:01.974Z,100911.28
2019-06-08T17:43:36.085Z,100922.55
2019-06-08T17:46:09.172Z,100915.54
2019-06-08T17:48:45.232Z,100919.67
2019-06-08T17:51:18.703Z,100914.89
2019-06-08T17:53:52.105Z,100915.69
2019-06-08T17:56:25.030Z,100918.45
2019-06-08T17:58:58.115Z,100921.20
2019-06-08T18:01:31.411Z,100922.00
2019-06-08T18:04:04.600Z,100923.82
2019-06-08T18:06:39.857Z,100933.48
2019-06-08T18:09:13.062Z,100930.19
2019-06-08T18:11:48.029Z,100935.41
2019-06-08T18:14:21.106Z,100935.41
2019-06-08T18:16:54.369Z,100935.11
2019-06-08T18:19:30.229Z,100936.44
2019-06-08T18:22:06.183Z,100932.16
2019-06-08T18:24:40.901Z,100938.74
2019-06-08T18:27:13.001Z,100949.80
2019-06-08T18:29:48.658Z,100953.22
2019-06-08T18:32:22.084Z,100953.17
2019-06-08T18:34:57.134Z,100964.38
2019-06-08T18:37:29.904Z,100960.09
2019-06-08T18:40:04.245Z,100965.62
2019-06-08T18:42:39.575Z,100963.99
2019-06-08T18:45:12.039Z,100976.66
2019-06-08T18:47:45.514Z,100981.34
2019-06-08T18:50:18.927Z,100976.14
2019-06-08T18:52:52.231Z,100971.44
2019-06-08T18:55:27.526Z,100975.28
2019-06-08T18:57:59.747Z,100976.91
2019-06-08T19:00:40.033Z,100980.73
2019-06-08T19:03:12.482Z,100984.80
2019-06-08T19:05:49.788Z,100993.01
2019-06-08T19:08:20.709Z,100992.66
2019-06-08T19:10:53.727Z,100998.20
2019-06-08T19:13:27.195Z,100997.67
2019-06-08T19:16:00.207Z,100995.15
2019-06-08T19:18:33.195Z,100996.42
2019-06-08T19:21:08.030Z,101009.86
2019-06-08T19:23:43.294Z,101013.53
2019-06-08T19:26:17.196Z,101009.37
2019-06-08T19:28:53.901Z,101011.28
2019-06-08T19:31:27.493Z,101012.97
2019-06-08T19:34:00.440Z,101012.99
2019-06-08T19:36:35.178Z,101007.98
2019-06-08T19:39:09.189Z,101013.51
2019-06-08T19:41:42.567Z,101020.41
2019-06-08T19:44:15.559Z,101015.12
2019-06-08T19:46:52.326Z,101016.42
2019-06-08T19:49:23.064Z,101027.42
2019-06-08T19:51:59.452Z,101022.41
2019-06-08T19:54:32.644Z,101024.31
2019-06-08T19:57:07.811Z,101029.56
2019-06-08T19:59:41.369Z,101033.39
2019-06-08T20:02:14.574Z,101034.30
2019-06-08T20:04:48.917Z,101031.25
2019-06-08T20:07:22.090Z,101033.84
2019-06-08T20:09:57.105Z,101032.42
2019-06-08T20:12:33.713Z,101031.11
2019-06-08T20:15:08.515Z,101027.78
2019-06-08T20:17:41.770Z,101034.07
2019-06-08T20:20:15.045Z,101038.17
2019-06-08T20:22:50.452Z,101037.82
2019-06-08T20:25:23.271Z,101044.75
2019-06-08T20:27:58.725Z,101047.63
2019-06-08T20:30:31.244Z,101065.30
2019-06-08T20:33:04.277Z,101073.39
2019-06-08T20:35:37.711Z,101055.19
2019-06-08T20:38:10.871Z,101058.90
2019-06-08T20:40:44.013Z,101062.68
2019-06-08T20:43:17.743Z,101067.86
2019-06-08T20:45:52.203Z,101068.64
2019-06-08T20:48:27.500Z,101063.61
2019-06-08T20:51:00.648Z,101074.66
2019-06-08T20:53:33.527Z,101076.09
2019-06-08T20:56:08.061Z,101073.30
2019-06-08T20:58:41.141Z,101064.59
2019-06-08T21:01:14.131Z,101070.81
2019-06-08T21:03:48.588Z,101060.24
2019-06-08T21:06:22.455Z,101061.63
2019-06-08T21:08:57.608Z,101058.92
2019-06-08T21:11:30.591Z,101049.47
2019-06-08T21:14:03.875Z,101049.56
2019-06-08T21:16:38.332Z,101051.16
2019-06-08T21:19:11.283Z,101054.09
2019-06-08T21:21:45.613Z,101052.64
2019-06-08T21:24:19.025Z,101048.51
2019-06-08T21:26:55.190Z,101051.21
2019-06-08T21:29:34.205Z,101051.69
2019-06-08T21:32:03.117Z,101058.00
2019-06-08T21:34:38.085Z,101054.89
2019-06-08T21:37:11.345Z,101060.34
2019-06-08T21:39:44.321Z,101055.06
2019-06-08T21:42:17.630Z,101061.41
2019-06-08T21:44:53.110Z,101073.61
2019-06-08T21:47:27.186Z,101070.81
2019-06-08T21:50:00.539Z,101069.56
2019-06-08T21:52:35.314Z,101082.61
2019-06-08T21:55:08.714Z,101085.31
2019-06-08T21:57:41.918Z,101087.75
2019-06-08T22:00:38.155Z,101089.07
2019-06-08T22:02:51.782Z,101087.70
2019-06-08T22:05:27.120Z,101090.10
2019-06-08T22:08:00.512Z,101092.09
2019-06-08T22:10:33.578Z,101096.58
2019-06-08T22:13:08.652Z,101099.22
2019-06-08T22:15:41.904Z,101088.48
2019-06-08T22:18:15.156Z,101089.77
2019-06-08T22:20:48.333Z,101090.21
2019-06-08T22:23:21.378Z,101090.21
2019-06-08T22:25:59.226Z,101086.62
2019-06-08T22:28:32.538Z,101080.30
2019-06-08T22:31:07.881Z,101085.94
2019-06-08T22:33:40.376Z,101086.19
2019-06-08T22:36:15.020Z,101082.20
2019-06-08T22:38:48.290Z,101084.58
2019-06-08T22:41:21.368Z,101090.38
2019-06-08T22:43:55.705Z,101090.60
2019-06-08T22:46:28.888Z,101091.61
2019-06-08T22:49:03.691Z,101089.70
2019-06-08T22:51:38.339Z,101097.94
2019-06-08T22:54:13.785Z,101098.64
2019-06-08T22:56:47.812Z,101089.61
2019-06-08T22:59:20.737Z,101085.48
2019-06-08T23:01:55.937Z,101094.05
2019-06-08T23:04:29.326Z,101098.30
2019-06-08T23:07:04.540Z,101098.08
2019-06-08T23:09:37.389Z,101097.61
2019-06-08T23:12:10.424Z,101095.12
2019-06-08T23:14:43.674Z,101095.12
2019-06-08T23:17:17.866Z,101096.65
2019-06-08T23:19:51.229Z,101092.06
2019-06-08T23:22:24.239Z,101098.24
2019-06-08T23:24:59.380Z,101098.46
2019-06-08T23:27:32.033Z,101093.50
2019-06-08T23:30:09.655Z,101093.41
2019-06-08T23:32:40.508Z,101107.70
2019-06-08T23:35:13.875Z,101115.31
2019-06-08T23:37:47.804Z,101119.80
2019-06-08T23:40:21.090Z,101114.94
2019-06-08T23:42:54.186Z,101107.70
2019-06-08T23:45:27.323Z,101101.58
2019-06-08T23:48:01.161Z,101103.95
2019-06-08T23:50:34.514Z,101107.84
2019-06-08T23:53:10.583Z,101099.17
2019-06-08T23:55:43.430Z,101095.68
2019-06-08T23:58:17.480Z,101107.82
